Time;durP1;ratioP1;P1;durP2;ratioP2;P2;SDS_P1;SDS_P2;PMS_P1;PMS_P2;Temp;Humidity;BMP_temperature;BMP_pressure;BME280_temperature;BME280_humidity;BME280_pressure;Samples;Min_cycle;Max_cycle;Signal;HPM_P1;HPM_P2
2022/12/28 00:03:53;;;;;;;6.07;2.97;;;;;7.00;101162.00;;;;9777769;30;20213;-79
2022/12/28 00:08:56;;;;;;;4.03;3.13;;;;;7.00;101152.00;;;;9784832;30;20201;-79
2022/12/28 00:14:00;;;;;;;5.37;2.63;;;;;7.00;101116.00;;;;9777330;30;20212;-78
2022/12/28 00:19:09;;;;;;;3.80;3.10;;;;;7.00;101119.00;;;;9785046;30;20217;-78
2022/12/28 00:24:19;;;;;;;6.77;3.20;;;;;7.00;101121.00;;;;9784420;30;20237;-78
2022/12/28 00:29:22;;;;;;;6.67;2.80;;;;;7.10;101115.00;;;;9760233;30;20266;-79
2022/12/28 00:34:24;;;;;;;6.33;3.30;;;;;7.10;101094.00;;;;9793093;30;20201;-79
2022/12/28 00:39:26;;;;;;;5.60;2.80;;;;;7.20;101079.00;;;;9806091;30;20217;-79
2022/12/28 00:44:28;;;;;;;6.07;2.87;;;;;7.20;101074.00;;;;9776949;30;20267;-79
2022/12/28 00:49:30;;;;;;;4.53;3.23;;;;;7.20;101062.00;;;;9777681;30;20268;-79
2022/12/28 00:54:33;;;;;;;6.07;3.03;;;;;7.20;101053.00;;;;9814993;30;20212;-78
2022/12/28 00:59:36;;;;;;;4.63;2.87;;;;;7.30;101043.00;;;;9773927;30;20221;-78
2022/12/28 01:04:38;;;;;;;7.47;3.10;;;;;7.30;101030.00;;;;9799377;30;20197;-79
2022/12/28 01:09:41;;;;;;;4.40;2.67;;;;;7.30;101041.00;;;;9790281;30;20190;-79
2022/12/28 01:14:43;;;;;;;6.50;2.83;;;;;7.40;101032.00;;;;9783418;30;20320;-79
2022/12/28 01:19:45;;;;;;;4.43;2.93;;;;;7.50;101025.00;;;;9776420;30;20232;-80
2022/12/28 01:24:54;;;;;;;5.80;2.67;;;;;7.60;101011.00;;;;9775619;30;20664;-79
2022/12/28 01:29:56;;;;;;;4.23;2.97;;;;;7.60;101013.00;;;;9778194;30;20205;-80
2022/12/28 01:34:58;;;;;;;4.37;2.57;;;;;7.70;101012.00;;;;9779169;30;20220;-79
2022/12/28 01:40:00;;;;;;;5.27;3.17;;;;;7.70;100991.00;;;;9773650;30;20217;-79
2022/12/28 01:45:15;;;;;;;5.50;2.87;;;;;7.80;101007.00;;;;9754155;30;20626;-79
2022/12/28 01:50:23;;;;;;;5.23;3.30;;;;;7.80;100986.00;;;;9775320;30;20608;-79
2022/12/28 01:55:32;;;;;;;6.70;3.17;;;;;7.80;100987.00;;;;9765841;30;20220;-79
2022/12/28 02:00:34;;;;;;;5.13;3.17;;;;;7.70;100969.00;;;;9767769;30;20248;-78
2022/12/28 02:05:44;;;;;;;4.17;2.73;;;;;7.60;100965.00;;;;9782467;30;20215;-79
2022/12/28 02:10:46;;;;;;;4.77;3.47;;;;;7.60;100956.00;;;;9760249;30;20204;-78
2022/12/28 02:15:50;;;;;;;4.63;3.13;;;;;7.60;100964.00;;;;9773209;30;20217;-78
2022/12/28 02:21:28;;;;;;;5.60;2.90;;;;;7.60;100966.00;;;;9785955;30;20201;-78
2022/12/28 02:26:46;;;;;;;6.00;3.13;;;;;7.60;100947.00;;;;9775028;30;20300;-78
2022/12/28 02:32:22;;;;;;;4.97;3.17;;;;;7.60;100946.00;;;;9817177;30;20554;-78
2022/12/28 02:37:29;;;;;;;3.67;2.83;;;;;7.70;100928.00;;;;9777720;30;20224;-79
2022/12/28 02:42:33;;;;;;;5.70;3.33;;;;;7.80;100919.00;;;;9790941;30;20197;-78
2022/12/28 02:52:59;;;;;;;3.87;2.40;;;;;8.00;100902.00;;;;9792498;30;20209;-79
2022/12/28 02:58:18;;;;;;;3.60;2.63;;;;;8.00;100893.00;;;;9802256;30;20247;-78
2022/12/28 03:03:35;;;;;;;4.73;3.03;;;;;8.00;100891.00;;;;9800217;30;20211;-79
2022/12/28 03:09:08;;;;;;;3.23;2.50;;;;;8.00;100878.00;;;;9794363;30;20197;-78
2022/12/28 03:14:20;;;;;;;4.50;2.77;;;;;8.10;100891.00;;;;9792888;30;20212;-79
2022/12/28 03:35:54;;;;;;;8.90;2.60;;;;;8.10;100889.00;;;;9775549;30;20573;-78
2022/12/28 03:41:07;;;;;;;6.37;3.23;;;;;8.10;100870.00;;;;9779492;30;20263;-78
2022/12/28 03:46:40;;;;;;;8.03;2.30;;;;;8.20;100871.00;;;;9777333;30;20205;-78
2022/12/28 03:51:46;;;;;;;4.23;2.40;;;;;8.30;100859.00;;;;9792957;30;20263;-79
2022/12/28 03:56:52;;;;;;;5.83;2.57;;;;;8.30;100860.00;;;;9788877;30;20275;-78
2022/12/28 04:02:00;;;;;;;3.43;2.17;;;;;8.20;100861.00;;;;9793283;30;20312;-78
2022/12/28 04:07:04;;;;;;;2.37;1.97;;;;;8.10;100857.00;;;;9794346;30;20208;-77
2022/12/28 04:12:06;;;;;;;4.47;3.33;;;;;8.00;100858.00;;;;9792612;30;20225;-79
2022/12/28 04:17:34;;;;;;;3.93;2.47;;;;;8.00;100844.00;;;;9795988;30;20214;-77
2022/12/28 04:22:36;;;;;;;4.47;2.43;;;;;8.00;100844.00;;;;9772949;30;20251;-78
2022/12/28 04:27:38;;;;;;;5.33;3.00;;;;;8.00;100843.00;;;;9767292;30;20234;-78
2022/12/28 04:32:49;;;;;;;5.13;3.10;;;;;8.00;100824.00;;;;9787392;30;20205;-78
2022/12/28 04:37:51;;;;;;;3.77;2.10;;;;;7.90;100805.00;;;;9820433;30;20216;-78
2022/12/28 04:42:53;;;;;;;5.93;2.83;;;;;7.90;100809.00;;;;9776883;30;20197;-78
2022/12/28 04:47:58;;;;;;;3.40;2.67;;;;;7.90;100808.00;;;;9775054;30;20297;-78
2022/12/28 04:53:00;;;;;;;3.90;2.03;;;;;7.90;100810.00;;;;9802656;30;20211;-78
2022/12/28 04:58:02;;;;;;;8.33;1.87;;;;;7.90;100812.00;;;;9775310;30;20213;-78
2022/12/28 05:03:04;;;;;;;6.63;2.40;;;;;7.90;100808.00;;;;9789588;30;20209;-79
2022/12/28 05:08:06;;;;;;;3.87;2.33;;;;;7.90;100792.00;;;;9789840;30;20280;-78
2022/12/28 05:13:08;;;;;;;6.90;2.00;;;;;8.00;100789.00;;;;9789473;30;20228;-78
2022/12/28 05:18:10;;;;;;;10.23;2.50;;;;;8.00;100776.00;;;;9790274;30;20225;-80
2022/12/28 05:23:12;;;;;;;6.27;2.73;;;;;8.00;100781.00;;;;9775419;30;20212;-79
2022/12/28 05:28:13;;;;;;;3.60;2.00;;;;;8.00;100780.00;;;;9794345;30;20212;-78
2022/12/28 05:33:15;;;;;;;1.93;1.50;;;;;8.10;100784.00;;;;9762679;30;20665;-79
2022/12/28 05:38:18;;;;;;;3.43;1.40;;;;;8.10;100795.00;;;;9804647;30;20282;-79
2022/12/28 05:43:20;;;;;;;6.73;2.00;;;;;8.20;100789.00;;;;9755085;30;20246;-78
2022/12/28 05:48:22;;;;;;;2.97;2.00;;;;;8.30;100784.00;;;;9819062;30;20201;-79
2022/12/28 05:53:24;;;;;;;5.70;2.40;;;;;8.30;100792.00;;;;9788049;30;20215;-78
2022/12/28 05:58:26;;;;;;;5.57;1.70;;;;;8.30;100778.00;;;;9785628;30;20314;-78
2022/12/28 06:03:28;;;;;;;6.53;1.80;;;;;8.50;100773.00;;;;9774631;30;20205;-78
2022/12/28 06:08:30;;;;;;;2.67;1.50;;;;;8.60;100783.00;;;;9773494;30;20196;-78
2022/12/28 06:13:33;;;;;;;7.07;2.00;;;;;8.60;100783.00;;;;9759312;30;20202;-79
2022/12/28 06:18:35;;;;;;;6.07;2.40;;;;;8.60;100775.00;;;;9800115;30;20201;-78
2022/12/28 06:23:37;;;;;;;5.77;1.63;;;;;8.70;100771.00;;;;9788274;30;20782;-78
2022/12/28 06:28:40;;;;;;;4.23;2.10;;;;;8.70;100775.00;;;;9783816;30;20208;-79
2022/12/28 06:33:42;;;;;;;1.70;1.10;;;;;8.70;100762.00;;;;9789130;30;20225;-79
2022/12/28 06:38:45;;;;;;;4.57;1.93;;;;;8.80;100763.00;;;;9784152;30;20704;-78
2022/12/28 06:43:48;;;;;;;4.50;1.53;;;;;8.80;100752.00;;;;9788706;30;20222;-79
2022/12/28 06:48:50;;;;;;;5.13;2.00;;;;;8.90;100742.00;;;;9803135;30;20205;-78
2022/12/28 06:53:53;;;;;;;4.30;1.70;;;;;9.00;100747.00;;;;9774276;30;20677;-78
2022/12/28 06:58:55;;;;;;;4.63;1.80;;;;;9.00;100741.00;;;;9796122;30;20217;-79
2022/12/28 07:04:06;;;;;;;4.10;1.87;;;;;9.00;100739.00;;;;9789719;30;20213;-78
2022/12/28 07:09:12;;;;;;;3.97;1.60;;;;;9.10;100728.00;;;;9779408;30;20221;-78
2022/12/28 07:14:14;;;;;;;3.20;1.43;;;;;9.20;100727.00;;;;9768029;30;20197;-78
2022/12/28 07:19:16;;;;;;;6.90;1.40;;;;;9.20;100724.00;;;;9779001;30;20217;-80
2022/12/28 07:24:17;;;;;;;4.20;1.30;;;;;9.30;100738.00;;;;9785837;30;20232;-79
2022/12/28 07:29:20;;;;;;;3.30;1.40;;;;;9.30;100726.00;;;;9789973;30;20213;-79
2022/12/28 07:34:22;;;;;;;5.23;1.73;;;;;9.30;100722.00;;;;9787678;30;20268;-79
2022/12/28 07:39:24;;;;;;;2.60;1.50;;;;;9.30;100737.00;;;;9766207;30;20221;-79
2022/12/28 07:44:26;;;;;;;7.67;1.70;;;;;9.30;100714.00;;;;9803424;30;20264;-80
2022/12/28 07:49:31;;;;;;;3.50;1.40;;;;;9.30;100725.00;;;;9794197;30;20197;-79
2022/12/28 07:54:33;;;;;;;2.37;1.77;;;;;9.20;100731.00;;;;9778190;30;20693;-79
2022/12/28 07:59:35;;;;;;;6.33;1.83;;;;;8.90;100736.00;;;;9820655;30;20213;-79
2022/12/28 08:04:37;;;;;;;2.20;1.27;;;;;8.70;100725.00;;;;9779891;30;20197;-79
2022/12/28 08:09:39;;;;;;;4.03;1.50;;;;;8.70;100729.00;;;;9784051;30;20201;-79
2022/12/28 08:14:40;;;;;;;1.43;1.30;;;;;8.60;100721.00;;;;9763440;30;20210;-79
2022/12/28 08:19:42;;;;;;;7.37;1.63;;;;;8.60;100709.00;;;;9744009;30;20313;-79
2022/12/28 08:24:44;;;;;;;3.40;1.70;;;;;8.60;100730.00;;;;9778224;30;20632;-79
2022/12/28 08:29:46;;;;;;;2.53;2.20;;;;;8.60;100727.00;;;;9776939;30;20569;-79
2022/12/28 08:34:48;;;;;;;2.87;1.67;;;;;8.70;100713.00;;;;9775798;30;20209;-79
2022/12/28 08:39:50;;;;;;;4.70;2.03;;;;;8.70;100710.00;;;;9781996;30;20217;-78
2022/12/28 08:44:52;;;;;;;4.93;2.40;;;;;8.70;100715.00;;;;9790767;30;20235;-78
2022/12/28 08:49:53;;;;;;;7.87;2.30;;;;;8.80;100687.00;;;;9753780;30;20833;-79
2022/12/28 08:54:55;;;;;;;3.30;2.13;;;;;8.90;100693.00;;;;9779796;30;20271;-79
2022/12/28 08:59:57;;;;;;;5.27;2.90;;;;;9.00;100691.00;;;;9778472;30;20217;-78
2022/12/28 09:04:59;;;;;;;3.87;2.20;;;;;9.10;100690.00;;;;9775936;30;20216;-79
2022/12/28 09:10:01;;;;;;;4.60;2.30;;;;;9.10;100697.00;;;;9775152;30;20292;-79
2022/12/28 09:15:03;;;;;;;5.57;2.60;;;;;9.10;100690.00;;;;9776145;30;20286;-80
2022/12/28 09:20:06;;;;;;;4.97;2.53;;;;;9.20;100688.00;;;;9781861;30;20295;-80
2022/12/28 09:25:09;;;;;;;8.30;3.23;;;;;9.20;100694.00;;;;9784717;30;20229;-80
2022/12/28 09:30:11;;;;;;;3.23;2.50;;;;;9.20;100697.00;;;;9765540;30;20225;-80
2022/12/28 09:35:12;;;;;;;5.23;2.40;;;;;9.10;100682.00;;;;9758736;30;20620;-80
2022/12/28 09:40:15;;;;;;;5.93;2.67;;;;;9.20;100687.00;;;;9763155;30;20241;-80
2022/12/28 09:45:22;;;;;;;4.83;2.13;;;;;9.20;100681.00;;;;9771628;30;20688;-80
2022/12/28 09:50:28;;;;;;;6.47;2.40;;;;;9.20;100675.00;;;;9800389;30;20288;-80
2022/12/28 09:55:32;;;;;;;3.80;2.13;;;;;9.20;100684.00;;;;9789440;30;20255;-79
2022/12/28 10:00:46;;;;;;;7.03;2.90;;;;;9.20;100681.00;;;;9788423;30;20243;-79
2022/12/28 10:05:50;;;;;;;5.33;2.43;;;;;9.30;100667.00;;;;9779183;30;20209;-80
2022/12/28 10:10:56;;;;;;;5.30;2.87;;;;;9.30;100661.00;;;;9799291;30;20205;-80
2022/12/28 10:15:58;;;;;;;4.20;2.40;;;;;9.50;100672.00;;;;9774582;30;20221;-80
2022/12/28 10:21:00;;;;;;;3.73;2.10;;;;;9.50;100676.00;;;;9803308;30;20300;-80
2022/12/28 10:26:05;;;;;;;6.93;2.83;;;;;9.60;100669.00;;;;9774675;30;20228;-80
2022/12/28 10:31:09;;;;;;;4.40;2.00;;;;;9.60;100667.00;;;;9790517;30;20205;-80
2022/12/28 10:36:14;;;;;;;3.17;1.90;;;;;9.60;100675.00;;;;9789563;30;20209;-81
2022/12/28 10:41:19;;;;;;;2.67;1.50;;;;;9.70;100650.00;;;;9802838;30;20240;-80
2022/12/28 10:46:22;;;;;;;2.60;1.40;;;;;9.60;100651.00;;;;9759856;30;20206;-80
2022/12/28 10:51:28;;;;;;;1.80;1.50;;;;;9.60;100633.00;;;;9785783;30;20267;-82
2022/12/28 10:56:32;;;;;;;9.30;1.90;;;;;9.70;100644.00;;;;9805276;30;20596;-81
2022/12/28 11:01:33;;;;;;;4.97;2.07;;;;;9.50;100636.00;;;;9806182;30;20225;-79
2022/12/28 11:06:57;;;;;;;7.17;2.37;;;;;9.40;100624.00;;;;9777626;30;20228;-79
2022/12/28 11:12:35;;;;;;;5.97;2.00;;;;;9.70;100596.00;;;;9779064;30;20217;-80
2022/12/28 11:17:37;;;;;;;4.73;2.20;;;;;10.00;100599.00;;;;9758922;30;20321;-79
2022/12/28 11:22:39;;;;;;;4.50;1.90;;;;;10.10;100596.00;;;;9770434;30;20237;-79
2022/12/28 11:27:42;;;;;;;8.83;1.97;;;;;10.30;100570.00;;;;9782680;30;20308;-79
2022/12/28 11:32:56;;;;;;;4.97;2.30;;;;;10.40;100567.00;;;;9768197;30;20225;-79
2022/12/28 11:38:01;;;;;;;6.87;2.77;;;;;10.40;100552.00;;;;9769468;30;20218;-79
2022/12/28 11:43:03;;;;;;;3.20;1.80;;;;;10.30;100539.00;;;;9765530;30;20228;-79
2022/12/28 11:48:37;;;;;;;6.47;2.20;;;;;10.10;100539.00;;;;9800860;30;20609;-79
2022/12/28 11:53:45;;;;;;;4.63;2.27;;;;;10.20;100533.00;;;;9783496;30;20205;-79
2022/12/28 11:59:02;;;;;;;4.67;2.57;;;;;10.10;100531.00;;;;9799627;30;20840;-79
2022/12/28 12:04:04;;;;;;;5.93;2.50;;;;;10.20;100504.00;;;;9775100;30;20212;-79
2022/12/28 12:09:24;;;;;;;10.77;2.87;;;;;10.20;100491.00;;;;9781363;30;20198;-79
2022/12/28 12:14:37;;;;;;;5.20;2.10;;;;;10.20;100474.00;;;;9787567;30;20209;-79
2022/12/28 12:19:45;;;;;;;5.80;2.80;;;;;10.10;100476.00;;;;9769575;30;20631;-79
2022/12/28 12:25:22;;;;;;;8.13;2.83;;;;;10.10;100464.00;;;;9770734;30;20247;-79
2022/12/28 12:30:25;;;;;;;7.47;2.40;;;;;10.00;100472.00;;;;9780800;30;20292;-79
2022/12/28 12:35:29;;;;;;;7.37;2.00;;;;;9.90;100465.00;;;;9777079;30;20206;-80
2022/12/28 12:40:46;;;;;;;6.73;2.80;;;;;9.90;100449.00;;;;9773033;30;20267;-79
2022/12/28 12:46:34;;;;;;;5.80;2.10;;;;;9.90;100434.00;;;;9763366;30;20209;-78
2022/12/28 12:51:49;;;;;;;3.33;2.10;;;;;10.00;100420.00;;;;9751558;30;20198;-78
2022/12/28 12:57:00;;;;;;;5.40;2.17;;;;;10.20;100421.00;;;;9773206;30;20667;-78
2022/12/28 13:02:10;;;;;;;3.43;1.70;;;;;10.40;100395.00;;;;9774330;30;20226;-79
2022/12/28 13:07:22;;;;;;;5.80;2.20;;;;;10.50;100391.00;;;;9777957;30;20259;-79
2022/12/28 13:12:24;;;;;;;2.80;1.63;;;;;10.50;100378.00;;;;9767367;30;20451;-79
2022/12/28 13:17:28;;;;;;;4.67;1.80;;;;;10.60;100339.00;;;;9774480;30;20561;-79
2022/12/28 13:22:32;;;;;;;7.07;2.10;;;;;10.70;100344.00;;;;9778666;30;20921;-78
2022/12/28 13:27:34;;;;;;;6.80;1.80;;;;;10.70;100320.00;;;;9779887;30;20257;-80
2022/12/28 13:32:39;;;;;;;5.87;1.50;;;;;10.80;100319.00;;;;9770574;30;20661;-80
2022/12/28 13:37:41;;;;;;;5.97;1.80;;;;;11.10;100309.00;;;;9757670;30;20316;-79
2022/12/28 13:42:59;;;;;;;5.53;1.97;;;;;11.50;100302.00;;;;9778949;30;20207;-78
2022/12/28 13:48:04;;;;;;;6.00;1.60;;;;;11.20;100280.00;;;;9775409;30;20236;-79
2022/12/28 13:53:19;;;;;;;4.53;1.63;;;;;11.00;100274.00;;;;9790032;30;20208;-79
2022/12/28 13:58:34;;;;;;;4.77;1.50;;;;;10.90;100267.00;;;;9776719;30;20213;-79
2022/12/28 14:03:37;;;;;;;7.43;1.90;;;;;11.00;100253.00;;;;9793503;30;20201;-79
2022/12/28 14:08:45;;;;;;;6.37;1.57;;;;;11.00;100228.00;;;;9788370;30;20197;-79
2022/12/28 14:13:47;;;;;;;5.03;1.83;;;;;11.10;100226.00;;;;9775858;30;20209;-79
2022/12/28 14:18:50;;;;;;;3.50;1.60;;;;;10.80;100213.00;;;;9790209;30;20739;-78
2022/12/28 14:24:02;;;;;;;3.17;1.30;;;;;10.50;100212.00;;;;9804789;30;20588;-78
2022/12/28 14:29:11;;;;;;;2.87;1.53;;;;;10.40;100199.00;;;;9792766;30;20305;-78
2022/12/28 14:34:23;;;;;;;3.03;1.57;;;;;10.40;100186.00;;;;9790996;30;20707;-79
2022/12/28 14:39:33;;;;;;;3.40;1.77;;;;;10.30;100178.00;;;;9776169;30;20216;-79
2022/12/28 14:44:38;;;;;;;2.03;1.50;;;;;10.30;100162.00;;;;9786170;30;20238;-78
2022/12/28 14:49:41;;;;;;;4.03;1.80;;;;;10.20;100168.00;;;;9783354;30;20291;-78
2022/12/28 14:54:45;;;;;;;7.00;1.20;;;;;10.20;100166.00;;;;9792952;30;20205;-79
2022/12/28 14:59:56;;;;;;;4.03;1.70;;;;;10.00;100145.00;;;;9810341;30;20766;-78
2022/12/28 15:04:58;;;;;;;3.40;1.60;;;;;9.80;100148.00;;;;9793199;30;20296;-78
2022/12/28 15:10:02;;;;;;;5.10;1.17;;;;;9.60;100145.00;;;;9760186;30;20212;-78
2022/12/28 15:15:04;;;;;;;2.53;1.43;;;;;9.60;100127.00;;;;9832531;30;20205;-78
2022/12/28 15:20:07;;;;;;;3.20;1.80;;;;;9.50;100141.00;;;;9809838;30;20205;-78
2022/12/28 15:25:09;;;;;;;3.07;1.60;;;;;9.50;100124.00;;;;9782492;30;20229;-78
2022/12/28 15:30:11;;;;;;;3.00;1.60;;;;;9.40;100122.00;;;;9780498;30;20212;-78
2022/12/28 15:35:21;;;;;;;3.90;1.50;;;;;9.30;100113.00;;;;9767425;30;20206;-78
2022/12/28 15:40:23;;;;;;;6.10;1.10;;;;;9.30;100104.00;;;;9785396;30;20213;-78
2022/12/28 15:45:25;;;;;;;3.03;1.93;;;;;9.30;100069.00;;;;9807502;30;20206;-78
2022/12/28 15:50:27;;;;;;;2.60;1.20;;;;;9.30;100081.00;;;;9774098;30;20309;-78
2022/12/28 15:55:30;;;;;;;1.97;1.13;;;;;9.30;100045.00;;;;9790786;30;20211;-77
2022/12/28 16:00:32;;;;;;;1.73;1.30;;;;;9.20;100037.00;;;;9798690;30;20601;-78
2022/12/28 16:05:35;;;;;;;3.33;1.50;;;;;9.20;100027.00;;;;9790461;30;20212;-78
2022/12/28 16:10:37;;;;;;;1.23;1.03;;;;;9.20;99995.00;;;;9788940;30;20205;-78
2022/12/28 16:15:39;;;;;;;7.03;1.70;;;;;9.10;100005.00;;;;9784466;30;20222;-78
2022/12/28 16:20:41;;;;;;;4.17;1.50;;;;;9.10;100016.00;;;;9789195;30;20292;-78
2022/12/28 16:25:49;;;;;;;0.73;0.73;;;;;9.10;100000.00;;;;9813232;30;20233;-79
2022/12/28 16:30:51;;;;;;;4.60;1.70;;;;;9.10;99989.00;;;;9783541;30;20679;-78
2022/12/28 16:35:53;;;;;;;3.40;1.63;;;;;9.00;99982.00;;;;9797180;30;20212;-78
2022/12/28 16:41:00;;;;;;;1.83;1.10;;;;;9.00;99960.00;;;;9763355;30;20220;-78
2022/12/28 16:46:07;;;;;;;3.20;1.80;;;;;8.90;99963.00;;;;9785062;30;20209;-79
2022/12/28 16:51:10;;;;;;;4.50;1.20;;;;;8.90;99964.00;;;;9801733;30;20216;-79
2022/12/28 16:56:12;;;;;;;2.00;1.40;;;;;8.90;99949.00;;;;9803395;30;20205;-79
2022/12/28 17:01:14;;;;;;;1.80;1.27;;;;;8.90;99947.00;;;;9775754;30;20312;-79
2022/12/28 17:06:17;;;;;;;2.40;1.70;;;;;8.80;99939.00;;;;9796322;30;20206;-79
2022/12/28 17:11:18;;;;;;;4.00;1.90;;;;;8.80;99919.00;;;;9781859;30;20201;-78
2022/12/28 17:16:20;;;;;;;2.50;1.43;;;;;8.80;99911.00;;;;9760560;30;20247;-78
2022/12/28 17:21:30;;;;;;;5.43;1.40;;;;;8.90;99895.00;;;;9788402;30;20221;-78
2022/12/28 17:26:32;;;;;;;2.93;1.63;;;;;8.90;99892.00;;;;9787560;30;21136;-78
2022/12/28 17:31:34;;;;;;;4.43;1.73;;;;;8.90;99893.00;;;;9770521;30;20296;-78
2022/12/28 17:36:36;;;;;;;2.10;1.43;;;;;9.00;99883.00;;;;9768018;30;20296;-78
2022/12/28 17:41:39;;;;;;;1.70;1.60;;;;;9.00;99887.00;;;;9774685;30;20225;-78
2022/12/28 17:46:41;;;;;;;2.80;1.30;;;;;9.00;99883.00;;;;9749083;30;20218;-79
2022/12/28 17:51:43;;;;;;;3.47;1.40;;;;;9.10;99897.00;;;;9762775;30;20208;-77
2022/12/28 17:56:45;;;;;;;2.37;1.67;;;;;9.20;99883.00;;;;9796099;30;20224;-78
2022/12/28 18:01:48;;;;;;;1.40;1.30;;;;;9.30;99877.00;;;;9777164;30;20217;-78
2022/12/28 18:06:50;;;;;;;4.27;1.80;;;;;9.40;99869.00;;;;9780333;30;20216;-78
2022/12/28 18:11:52;;;;;;;2.63;1.50;;;;;9.40;99885.00;;;;9748004;30;20201;-78
2022/12/28 18:16:54;;;;;;;1.47;1.30;;;;;9.50;99882.00;;;;9790808;30;20248;-77
2022/12/28 18:21:56;;;;;;;3.63;1.70;;;;;9.60;99883.00;;;;9743233;30;20690;-77
2022/12/28 18:26:58;;;;;;;3.30;1.40;;;;;9.70;99875.00;;;;9791796;30;20237;-78
2022/12/28 18:32:00;;;;;;;4.10;1.57;;;;;9.70;99863.00;;;;9761428;30;20620;-78
2022/12/28 18:37:02;;;;;;;1.97;1.60;;;;;9.70;99859.00;;;;9782329;30;20247;-78
2022/12/28 18:42:04;;;;;;;3.47;1.80;;;;;9.70;99852.00;;;;9802715;30;20217;-78
2022/12/28 18:47:06;;;;;;;2.73;1.63;;;;;9.80;99852.00;;;;9787810;30;20244;-78
2022/12/28 18:52:08;;;;;;;1.73;1.43;;;;;9.90;99807.00;;;;9768760;30;20201;-78
2022/12/28 18:57:10;;;;;;;2.47;2.00;;;;;9.90;99826.00;;;;9777892;30;20213;-78
2022/12/28 19:02:13;;;;;;;4.87;2.17;;;;;10.00;99832.00;;;;9786894;30;20217;-78
2022/12/28 19:07:20;;;;;;;2.13;1.80;;;;;10.00;99839.00;;;;9769964;30;20277;-78
2022/12/28 19:12:22;;;;;;;2.20;1.90;;;;;10.10;99835.00;;;;9755292;30;20203;-78
2022/12/28 19:17:27;;;;;;;4.90;2.40;;;;;10.10;99838.00;;;;9779448;30;20205;-78
2022/12/28 19:22:33;;;;;;;1.77;1.67;;;;;10.00;99828.00;;;;9773739;30;20205;-77
2022/12/28 19:27:35;;;;;;;3.23;2.00;;;;;10.00;99822.00;;;;9766541;30;20597;-77
2022/12/28 19:32:36;;;;;;;4.07;2.10;;;;;10.10;99826.00;;;;9780742;30;20734;-78
2022/12/28 19:37:39;;;;;;;4.00;1.73;;;;;10.20;99826.00;;;;9802273;30;20205;-78
2022/12/28 19:42:41;;;;;;;3.33;1.77;;;;;10.20;99812.00;;;;9780029;30;20224;-78
2022/12/28 19:47:43;;;;;;;2.33;1.80;;;;;10.30;99809.00;;;;9755115;30;20209;-77
2022/12/28 19:52:45;;;;;;;1.83;1.67;;;;;10.40;99801.00;;;;9796896;30;20197;-78
2022/12/28 19:57:47;;;;;;;4.13;2.00;;;;;10.40;99813.00;;;;9794849;30;20208;-78
2022/12/28 20:02:48;;;;;;;2.67;2.20;;;;;10.40;99817.00;;;;9803066;30;20220;-78
2022/12/28 20:07:51;;;;;;;3.13;2.30;;;;;10.40;99812.00;;;;9816369;30;20323;-78
2022/12/28 20:12:53;;;;;;;2.23;1.60;;;;;10.50;99802.00;;;;9758746;30;20205;-78
2022/12/28 20:17:55;;;;;;;2.10;1.80;;;;;10.60;99803.00;;;;9776934;30;20616;-78
2022/12/28 20:22:57;;;;;;;3.40;2.07;;;;;10.60;99796.00;;;;9783832;30;20282;-78
2022/12/28 20:27:59;;;;;;;3.90;3.20;;;;;10.70;99796.00;;;;9785682;30;20235;-78
2022/12/28 20:33:01;;;;;;;2.67;1.73;;;;;10.80;99793.00;;;;9774167;30;20214;-78
2022/12/28 20:38:03;;;;;;;4.87;2.40;;;;;10.80;99785.00;;;;9798850;30;20825;-78
2022/12/28 20:43:23;;;;;;;4.33;1.80;;;;;10.90;99772.00;;;;9756495;30;20210;-78
2022/12/28 20:48:27;;;;;;;3.03;2.10;;;;;10.90;99782.00;;;;9794635;30;20193;-78
2022/12/28 20:53:29;;;;;;;2.20;2.00;;;;;10.90;99772.00;;;;9793304;30;20229;-78
2022/12/28 20:58:31;;;;;;;3.27;1.90;;;;;10.80;99772.00;;;;9803059;30;20221;-78
2022/12/28 21:03:33;;;;;;;2.73;2.30;;;;;10.80;99755.00;;;;9790880;30;20205;-78
2022/12/28 21:08:35;;;;;;;2.43;2.07;;;;;10.90;99745.00;;;;9775122;30;20205;-78
2022/12/28 21:13:37;;;;;;;3.03;2.03;;;;;10.90;99742.00;;;;9752779;30;20215;-78
2022/12/28 21:18:45;;;;;;;2.87;2.40;;;;;10.90;99737.00;;;;9791918;30;20211;-78
2022/12/28 21:23:47;;;;;;;3.30;2.27;;;;;10.90;99735.00;;;;9794115;30;20741;-77
2022/12/28 21:28:49;;;;;;;2.83;1.77;;;;;11.00;99720.00;;;;9799735;30;20216;-78
2022/12/28 21:33:55;;;;;;;4.90;2.67;;;;;11.00;99725.00;;;;9782155;30;20205;-78
2022/12/28 21:38:56;;;;;;;2.20;1.70;;;;;11.10;99727.00;;;;9790202;30;20244;-78
2022/12/28 21:43:58;;;;;;;2.17;1.90;;;;;11.10;99725.00;;;;9774524;30;20800;-78
2022/12/28 21:49:02;;;;;;;3.63;1.40;;;;;11.10;99716.00;;;;9789073;30;20200;-78
2022/12/28 21:54:07;;;;;;;4.63;2.70;;;;;11.10;99714.00;;;;9786635;30;20301;-79
2022/12/28 21:59:10;;;;;;;2.10;1.80;;;;;11.20;99702.00;;;;9787674;30;20331;-78
2022/12/28 22:20:17;;;;;;;3.00;1.40;;;;;11.30;99688.00;;;;9799208;30;20227;-79
2022/12/28 22:25:19;;;;;;;3.63;1.60;;;;;11.30;99694.00;;;;9778044;30;20630;-79
2022/12/28 22:30:21;;;;;;;2.43;1.67;;;;;11.30;99685.00;;;;9753351;30;20252;-78
2022/12/28 22:35:23;;;;;;;1.77;1.40;;;;;11.20;99652.00;;;;9791360;30;20197;-77
2022/12/28 22:40:25;;;;;;;1.63;1.47;;;;;11.00;99667.00;;;;9789932;30;20242;-78
2022/12/28 22:45:27;;;;;;;1.70;1.17;;;;;10.80;99671.00;;;;9753083;30;20689;-78
2022/12/28 22:50:30;;;;;;;2.00;1.50;;;;;10.60;99664.00;;;;9770131;30;20201;-79
2022/12/28 22:55:31;;;;;;;4.60;1.70;;;;;10.50;99672.00;;;;9824013;30;20197;-78
2022/12/28 23:00:33;;;;;;;2.27;1.67;;;;;10.50;99668.00;;;;9778117;30;20209;-78
2022/12/28 23:05:35;;;;;;;2.27;2.07;;;;;10.50;99644.00;;;;9818254;30;20657;-79
2022/12/28 23:10:37;;;;;;;2.03;1.77;;;;;10.50;99644.00;;;;9781087;30;20197;-78
2022/12/28 23:15:39;;;;;;;2.97;1.50;;;;;10.60;99632.00;;;;9781306;30;20233;-78
2022/12/28 23:31:22;;;;;;;2.00;1.43;;;;;10.90;99619.00;;;;9810016;30;20197;-77
2022/12/28 23:36:24;;;;;;;1.10;1.00;;;;;11.00;99610.00;;;;9794366;30;20205;-78
2022/12/28 23:46:47;;;;;;;1.57;1.00;;;;;11.10;99579.00;;;;9809176;30;20216;-78
2022/12/28 23:51:54;;;;;;;1.83;1.13;;;;;11.10;99589.00;;;;9823301;30;20292;-78
2022/12/28 23:56:56;;;;;;;2.00;1.30;;;;;11.20;99586.00;;;;9794213;30;20209;-78
